MAUNA LOA HI US current weather conditions

sailwx.info

Wind from 351 at 6 knots gusting 15

Air temperature 12.8° C
Dewpoint 9.4° C

Last reported at 2016-Jun-25 07:34 UTC.
Time now 2016-Jun-25 08:52 UTC

Location: N 19°28' W 155°22'.
View on Google Maps.

See reports from other nearby stations

  
Tides and Currents Weather Stations Pressure Air Temp Water Temp Dewpoint Dewpoint Depression Visibility Wind Speed Wind Dir Waves Ship Positions
date/time (UTC)wind fromknots sea level pressurealtimeterstation pressurevisibilityair tempwater tempwave heightnotes
2016-Jun-25 07:34 351 6 gusting 15 12.8
2016-Jun-25 06:34 006 6 gusting 15 12.8
2016-Jun-25 05:34 002 6 gusting 14 14.4
2016-Jun-25 04:34 349 6 gusting 16 16.1
2016-Jun-25 03:34 010 8 gusting 17 17.8
2016-Jun-25 02:34 018 10 gusting 19 17.2
2016-Jun-25 01:34 032 9 gusting 18 21.1
2016-Jun-25 00:34 020 6 gusting 15 22.2
2016-Jun-24 23:34 031 8 gusting 17 22.8
2016-Jun-24 22:34 030 6 gusting 19 23.9
2016-Jun-24 21:34 023 7 gusting 16 23.3
2016-Jun-24 20:34 027 7 gusting 13 22.2
2016-Jun-24 19:34 036 6 gusting 13 20.6
2016-Jun-24 18:34 009 5 gusting 11 19.4
2016-Jun-24 17:34 021 6 gusting 11 17.2
2016-Jun-24 16:34 330 5 gusting 9 13.3
2016-Jun-24 15:34 332 5 gusting 8 11.1
2016-Jun-24 14:34 333 3 gusting 7 11.7
2016-Jun-24 13:34 343 4 gusting 9 12.8
2016-Jun-24 12:34 016 5 gusting 9 12.8
2016-Jun-24 11:34 278 2 gusting 4 11.1
2016-Jun-24 10:34 333 0 gusting 6 11.7
2016-Jun-24 09:34 283 4 gusting 10 10.6
2016-Jun-24 08:34 334 4 gusting 13 11.7
2016-Jun-24 07:34 332 7 gusting 14 12.2
2016-Jun-24 06:34 345 8 gusting 15 12.2
2016-Jun-24 05:34 352 7 gusting 16 12.8
2016-Jun-24 04:34 353 8 gusting 16 13.3
2016-Jun-24 03:34 009 7 gusting 19 15.0
2016-Jun-24 02:34 017 9 gusting 19 17.2
2016-Jun-24 01:34 359 9 gusting 20 17.8
2016-Jun-24 00:34 024 11 gusting 20 18.3
2016-Jun-23 23:34 029 10 gusting 22 21.7
2016-Jun-23 22:34 020 8 gusting 17 22.8
2016-Jun-23 21:34 007 7 gusting 16 22.2
2016-Jun-23 20:34 357 7 gusting 15 18.9
2016-Jun-23 19:34 007 8 gusting 15 19.4
2016-Jun-23 18:34 358 5 gusting 13 19.4
2016-Jun-23 17:34 013 6 gusting 12 16.7
2016-Jun-23 16:34 322 4 gusting 9 13.9
2016-Jun-23 15:34 314 5 gusting 11 11.7
2016-Jun-23 14:34 328 6 gusting 10 11.1
2016-Jun-23 13:34 342 5 gusting 9 11.1
2016-Jun-23 12:34 325 4 gusting 9 11.1
2016-Jun-23 11:34 350 3 gusting 6 11.7
2016-Jun-23 10:34 328 2 gusting 5 12.8
2016-Jun-23 09:34 331 3 gusting 7 11.1
2016-Jun-23 08:34 342 3 gusting 6 11.1